createdAt,value
2022-10-07T00:02:03.571Z,16.11
2022-10-07T00:04:31.210Z,16.22
2022-10-07T00:06:58.064Z,16.14
2022-10-07T00:09:25.019Z,16.15
2022-10-07T00:11:52.347Z,16.15
2022-10-07T00:14:19.315Z,15.91
2022-10-07T00:16:46.206Z,15.84
2022-10-07T00:19:13.588Z,15.94
2022-10-07T00:21:40.602Z,16.09
2022-10-07T00:24:07.703Z,15.83
2022-10-07T00:26:35.673Z,16.00
2022-10-07T00:29:03.232Z,15.95
2022-10-07T00:31:31.186Z,15.96
2022-10-07T00:33:58.435Z,15.89
2022-10-07T00:36:26.226Z,15.73
2022-10-07T00:38:53.475Z,15.91
2022-10-07T00:41:21.864Z,15.86
2022-10-07T00:43:48.676Z,15.83
2022-10-07T00:46:15.416Z,15.94
2022-10-07T00:48:42.458Z,15.99
2022-10-07T00:51:10.115Z,15.90
2022-10-07T00:53:37.597Z,15.79
2022-10-07T00:56:04.988Z,15.72
2022-10-07T00:58:32.517Z,15.69
2022-10-07T01:00:59.424Z,15.87
2022-10-07T01:03:26.465Z,15.77
2022-10-07T01:05:54.794Z,15.62
2022-10-07T01:08:22.186Z,15.73
2022-10-07T01:10:49.169Z,15.54
2022-10-07T01:13:22.252Z,15.53
2022-10-07T01:15:59.367Z,15.53
2022-10-07T01:18:38.592Z,15.51
2022-10-07T01:21:10.808Z,15.42
2022-10-07T01:23:56.461Z,15.52
2022-10-07T01:26:23.651Z,15.00
2022-10-07T01:29:01.116Z,15.49
2022-10-07T01:31:39.077Z,15.53
2022-10-07T01:34:06.670Z,15.32
2022-10-07T01:36:33.906Z,15.18
2022-10-07T01:39:02.721Z,15.39
2022-10-07T01:41:30.057Z,15.11
2022-10-07T01:43:57.139Z,15.05
2022-10-07T01:46:26.556Z,15.07
2022-10-07T01:48:54.376Z,15.13
2022-10-07T01:51:22.712Z,15.33
2022-10-07T01:54:08.126Z,15.30
2022-10-07T01:56:43.710Z,15.22
2022-10-07T01:59:27.144Z,15.23
2022-10-07T02:01:58.229Z,15.32
2022-10-07T02:04:44.205Z,15.06
2022-10-07T02:07:20.398Z,14.81
2022-10-07T02:10:06.537Z,15.27
2022-10-07T02:12:37.009Z,15.11
2022-10-07T02:15:04.107Z,15.03
2022-10-07T02:17:31.699Z,14.97
2022-10-07T02:19:59.699Z,15.01
2022-10-07T02:22:26.863Z,15.10
2022-10-07T02:24:55.406Z,15.14
2022-10-07T02:27:23.600Z,15.10
2022-10-07T02:29:52.756Z,14.97
2022-10-07T02:32:20.410Z,14.97
2022-10-07T02:34:49.341Z,14.72
2022-10-07T02:37:20.097Z,14.90
2022-10-07T02:39:47.552Z,14.87
2022-10-07T02:42:21.956Z,14.43
2022-10-07T02:44:49.768Z,15.09
2022-10-07T02:47:36.582Z,14.58
2022-10-07T02:50:05.017Z,14.68
2022-10-07T02:52:32.617Z,14.60
2022-10-07T02:55:07.059Z,14.91
2022-10-07T02:57:34.974Z,14.59
2022-10-07T03:00:01.721Z,14.82
2022-10-07T03:02:33.877Z,14.49
2022-10-07T03:05:01.000Z,14.61
2022-10-07T03:07:28.160Z,14.49
2022-10-07T03:09:54.915Z,14.66
2022-10-07T03:12:22.222Z,14.68
2022-10-07T03:14:50.059Z,14.44
2022-10-07T03:17:17.733Z,14.21
2022-10-07T03:19:45.137Z,14.58
2022-10-07T03:22:12.684Z,14.56
2022-10-07T03:24:42.638Z,14.51
2022-10-07T03:27:09.724Z,14.55
2022-10-07T03:29:36.972Z,14.50
2022-10-07T03:32:04.106Z,14.43
2022-10-07T03:34:32.341Z,14.28
2022-10-07T03:36:59.963Z,14.46
2022-10-07T03:39:28.172Z,14.31
2022-10-07T03:41:57.144Z,14.33
2022-10-07T03:44:24.154Z,14.25
2022-10-07T03:46:51.487Z,14.17
2022-10-07T03:49:20.254Z,14.45
2022-10-07T03:51:47.691Z,14.41
2022-10-07T03:54:14.771Z,14.27
2022-10-07T03:56:41.935Z,14.32
2022-10-07T03:59:08.827Z,14.10
2022-10-07T04:01:35.780Z,14.22
2022-10-07T04:04:03.050Z,14.46
2022-10-07T04:06:30.064Z,14.36
2022-10-07T04:08:56.879Z,14.37
2022-10-07T04:11:24.387Z,14.24
2022-10-07T04:13:52.145Z,14.05
2022-10-07T04:16:20.009Z,14.20
2022-10-07T04:18:47.419Z,14.21
2022-10-07T04:21:14.834Z,14.18
2022-10-07T04:23:42.071Z,13.96
2022-10-07T04:26:10.038Z,14.22
2022-10-07T04:28:36.985Z,14.28
2022-10-07T04:31:05.481Z,14.29
2022-10-07T04:33:33.737Z,14.08
2022-10-07T04:36:04.585Z,13.51
2022-10-07T04:38:32.663Z,14.06
2022-10-07T04:41:02.957Z,13.91
2022-10-07T04:43:33.969Z,14.06
2022-10-07T04:46:05.796Z,14.15
2022-10-07T04:48:33.658Z,14.03
2022-10-07T04:51:04.198Z,13.90
2022-10-07T04:53:31.863Z,13.95
2022-10-07T04:55:58.701Z,14.02
2022-10-07T04:58:25.985Z,13.92
2022-10-07T05:00:53.646Z,13.85
2022-10-07T05:03:21.629Z,13.81
2022-10-07T05:05:49.588Z,13.80
2022-10-07T05:08:17.796Z,13.96
2022-10-07T05:10:44.805Z,13.98
2022-10-07T05:13:12.731Z,14.04
2022-10-07T05:15:59.980Z,13.69
2022-10-07T05:18:28.511Z,13.78
2022-10-07T05:20:55.851Z,13.77
2022-10-07T05:23:28.054Z,14.01
2022-10-07T05:25:57.409Z,13.92
2022-10-07T05:28:24.308Z,13.70
2022-10-07T05:31:00.327Z,13.72
2022-10-07T05:33:27.689Z,13.75
2022-10-07T05:35:54.379Z,13.74
2022-10-07T05:38:21.364Z,14.06
2022-10-07T05:40:55.205Z,14.11
2022-10-07T05:43:21.923Z,14.02
2022-10-07T05:46:01.329Z,14.19
2022-10-07T05:48:35.392Z,14.10
2022-10-07T05:51:07.021Z,14.06
2022-10-07T05:53:35.346Z,14.36
2022-10-07T05:56:06.473Z,14.37
2022-10-07T06:01:16.815Z,14.43
2022-10-07T06:03:45.570Z,14.50
2022-10-07T06:06:12.569Z,14.62
2022-10-07T06:08:40.089Z,14.59
2022-10-07T06:11:26.086Z,14.71
2022-10-07T06:13:53.941Z,14.85
2022-10-07T06:16:21.260Z,14.83
2022-10-07T06:18:50.496Z,14.71
2022-10-07T06:21:18.030Z,15.02
2022-10-07T06:23:49.250Z,14.97
2022-10-07T06:26:16.089Z,15.14
2022-10-07T06:28:42.889Z,15.27
2022-10-07T06:31:11.314Z,15.22
2022-10-07T06:33:38.313Z,15.41
2022-10-07T06:36:05.613Z,15.49
2022-10-07T06:38:32.721Z,15.69
2022-10-07T06:40:59.907Z,15.75
2022-10-07T06:43:27.477Z,15.99
2022-10-07T06:46:07.504Z,16.14
2022-10-07T06:48:34.843Z,16.28
2022-10-07T06:51:06.046Z,16.31
2022-10-07T06:53:33.296Z,16.49
2022-10-07T06:56:01.973Z,16.79
2022-10-07T06:58:30.895Z,17.07
2022-10-07T07:01:01.449Z,17.33
2022-10-07T07:03:29.098Z,17.63
2022-10-07T07:05:56.718Z,18.13
2022-10-07T07:08:27.705Z,18.53
2022-10-07T07:10:54.878Z,18.85
2022-10-07T07:13:22.792Z,19.26
2022-10-07T07:15:59.261Z,19.76
2022-10-07T07:18:27.328Z,20.02
2022-10-07T07:20:54.192Z,20.26
2022-10-07T07:23:21.078Z,20.60
2022-10-07T07:25:48.223Z,20.79
2022-10-07T07:28:15.708Z,21.10
2022-10-07T07:30:42.992Z,21.20
2022-10-07T07:33:10.139Z,21.40
2022-10-07T07:35:37.944Z,21.68
2022-10-07T07:38:04.635Z,21.80
2022-10-07T07:40:32.232Z,21.95
2022-10-07T07:42:59.338Z,22.06
2022-10-07T07:45:26.312Z,22.19
2022-10-07T07:47:53.354Z,22.21
2022-10-07T07:50:22.334Z,22.18
2022-10-07T07:52:51.061Z,22.51
2022-10-07T07:55:22.657Z,22.62
2022-10-07T07:57:49.922Z,22.57
2022-10-07T08:00:16.832Z,22.81
2022-10-07T08:02:44.810Z,23.03
2022-10-07T08:05:12.444Z,23.10
2022-10-07T08:07:39.999Z,23.26
2022-10-07T08:10:07.592Z,22.63
2022-10-07T08:12:34.411Z,22.72
2022-10-07T08:15:02.305Z,23.12
2022-10-07T08:17:29.427Z,22.91
2022-10-07T08:19:56.249Z,23.11
2022-10-07T08:22:23.409Z,22.96
2022-10-07T08:24:50.645Z,23.18
2022-10-07T08:27:17.748Z,23.16
2022-10-07T08:29:44.412Z,23.38
2022-10-07T08:32:11.384Z,23.35
2022-10-07T08:34:38.143Z,23.48
2022-10-07T08:37:04.819Z,23.09
2022-10-07T08:39:32.059Z,23.47
2022-10-07T08:42:01.760Z,23.57
2022-10-07T08:44:29.995Z,23.53
2022-10-07T08:46:56.876Z,23.87
2022-10-07T08:49:25.925Z,23.80
2022-10-07T08:51:59.774Z,23.87
2022-10-07T08:54:27.294Z,23.87
2022-10-07T08:56:54.315Z,24.00
2022-10-07T08:59:27.301Z,24.10
2022-10-07T09:02:01.072Z,24.18
2022-10-07T09:04:38.805Z,23.87
2022-10-07T09:07:09.157Z,24.50
2022-10-07T09:09:47.090Z,23.82
2022-10-07T09:12:19.542Z,23.96
2022-10-07T09:14:46.666Z,23.86
2022-10-07T09:17:34.889Z,24.21
2022-10-07T09:20:16.443Z,24.13
2022-10-07T09:22:43.922Z,24.36
2022-10-07T09:25:11.460Z,24.30
2022-10-07T09:27:38.351Z,24.56
2022-10-07T09:30:05.588Z,24.82
2022-10-07T09:32:32.485Z,24.28
2022-10-07T09:34:59.594Z,24.50
2022-10-07T09:37:27.644Z,24.59
2022-10-07T09:39:56.511Z,24.38
2022-10-07T09:42:30.940Z,24.31
2022-10-07T09:44:59.024Z,24.58
2022-10-07T09:47:26.370Z,24.46
2022-10-07T09:49:56.974Z,24.72
2022-10-07T09:52:24.809Z,24.79
2022-10-07T09:54:52.372Z,24.68
2022-10-07T09:57:25.158Z,24.83
2022-10-07T09:59:52.209Z,24.86
2022-10-07T10:02:25.430Z,24.74
2022-10-07T10:04:56.042Z,24.76
2022-10-07T10:07:30.445Z,24.86
2022-10-07T10:09:58.154Z,24.85
2022-10-07T10:12:25.498Z,24.82
2022-10-07T10:14:53.395Z,25.03
2022-10-07T10:17:34.562Z,25.19
2022-10-07T10:20:20.004Z,25.18
2022-10-07T10:22:47.455Z,25.08
2022-10-07T10:25:32.967Z,25.17
2022-10-07T10:28:26.593Z,25.22
2022-10-07T10:30:55.639Z,25.27
2022-10-07T10:33:30.558Z,25.29
2022-10-07T10:36:06.194Z,25.28
2022-10-07T10:38:34.539Z,25.59
2022-10-07T10:41:06.739Z,25.46
2022-10-07T10:43:42.342Z,25.37
2022-10-07T10:46:21.227Z,25.36
2022-10-07T10:48:48.191Z,25.45
2022-10-07T10:51:34.492Z,25.49
2022-10-07T10:54:04.968Z,25.52
2022-10-07T10:56:35.629Z,25.45
2022-10-07T10:59:12.820Z,25.72
2022-10-07T11:01:43.308Z,25.77
2022-10-07T11:04:18.698Z,25.77
2022-10-07T11:06:46.798Z,25.82
2022-10-07T11:09:20.014Z,25.87
2022-10-07T11:11:46.974Z,25.81
2022-10-07T11:14:22.689Z,25.88
2022-10-07T11:17:09.611Z,25.86
2022-10-07T11:19:42.472Z,26.01
2022-10-07T11:22:13.588Z,25.67
2022-10-07T11:24:59.439Z,25.90
2022-10-07T11:27:30.463Z,26.01
2022-10-07T11:29:59.302Z,26.12
2022-10-07T11:32:31.290Z,25.85
2022-10-07T11:35:06.440Z,25.55
2022-10-07T11:37:56.437Z,25.61
2022-10-07T11:40:28.163Z,26.00
2022-10-07T11:43:06.273Z,26.09
2022-10-07T11:45:51.588Z,26.07
2022-10-07T11:48:33.390Z,26.04
2022-10-07T11:51:01.651Z,26.07
2022-10-07T11:53:28.999Z,26.05
2022-10-07T11:56:00.235Z,26.10
2022-10-07T11:58:36.725Z,25.93
2022-10-07T12:01:22.188Z,25.77
2022-10-07T12:03:52.355Z,25.89
2022-10-07T12:06:19.374Z,25.97
2022-10-07T12:08:46.286Z,25.92
2022-10-07T12:11:13.164Z,25.92
2022-10-07T12:13:40.984Z,25.59
2022-10-07T12:16:26.636Z,26.12
2022-10-07T12:19:10.737Z,26.19
2022-10-07T12:22:02.878Z,25.93
2022-10-07T12:24:36.160Z,26.00
2022-10-07T12:27:06.877Z,26.01
2022-10-07T12:29:44.914Z,25.94
2022-10-07T12:32:30.686Z,25.86
2022-10-07T12:35:21.199Z,26.11
2022-10-07T12:37:50.292Z,26.06
2022-10-07T12:40:18.405Z,26.05
2022-10-07T12:42:48.421Z,25.84
2022-10-07T12:45:16.141Z,26.06
2022-10-07T12:47:43.819Z,26.09
2022-10-07T12:50:11.631Z,26.01
2022-10-07T12:52:53.041Z,25.96
2022-10-07T12:55:20.143Z,25.87
2022-10-07T12:57:51.412Z,25.77
2022-10-07T13:00:24.700Z,26.01
2022-10-07T13:02:57.776Z,25.98
2022-10-07T13:05:27.384Z,25.92
2022-10-07T13:08:03.883Z,25.74
2022-10-07T13:10:50.180Z,25.87
2022-10-07T13:13:20.118Z,25.51
2022-10-07T13:15:56.967Z,25.75
2022-10-07T13:18:36.086Z,25.60
2022-10-07T13:21:02.769Z,25.49
2022-10-07T13:23:30.269Z,25.63
2022-10-07T13:25:57.707Z,25.41
2022-10-07T13:28:25.255Z,25.50
2022-10-07T13:30:52.509Z,25.36
2022-10-07T13:33:37.408Z,25.43
2022-10-07T13:36:22.586Z,25.48
2022-10-07T13:38:53.762Z,25.56
2022-10-07T13:41:22.183Z,25.41
2022-10-07T13:43:54.131Z,25.15
2022-10-07T13:46:22.117Z,25.33
2022-10-07T13:48:48.972Z,25.24
2022-10-07T13:51:21.121Z,25.34
2022-10-07T13:53:51.799Z,25.48
2022-10-07T13:56:32.535Z,25.37
2022-10-07T13:58:59.490Z,25.34
2022-10-07T14:01:29.580Z,25.39
2022-10-07T14:04:00.261Z,25.14
2022-10-07T14:06:37.129Z,24.83
2022-10-07T14:09:04.125Z,25.05
2022-10-07T14:11:30.855Z,25.25
2022-10-07T14:13:59.457Z,25.21
2022-10-07T14:16:26.465Z,25.05
2022-10-07T14:18:54.111Z,25.20
2022-10-07T14:21:20.859Z,25.18
2022-10-07T14:23:47.892Z,24.88
2022-10-07T14:26:16.510Z,24.79
2022-10-07T14:28:43.597Z,24.85
2022-10-07T14:31:49.679Z,24.84
2022-10-07T14:34:37.935Z,25.00
2022-10-07T14:37:12.085Z,24.93
2022-10-07T14:39:42.531Z,24.75
2022-10-07T14:42:23.567Z,24.56
2022-10-07T14:44:50.596Z,24.64
2022-10-07T14:47:21.509Z,24.78
2022-10-07T14:49:48.580Z,24.66
2022-10-07T14:52:24.151Z,24.67
2022-10-07T14:54:51.493Z,24.34
2022-10-07T14:57:18.154Z,24.42
2022-10-07T14:59:45.496Z,24.37
2022-10-07T15:02:12.460Z,24.43
2022-10-07T15:04:40.342Z,24.48
2022-10-07T15:07:07.632Z,24.37
2022-10-07T15:09:34.528Z,24.28
2022-10-07T15:12:01.191Z,24.29
2022-10-07T15:14:28.264Z,24.27
2022-10-07T15:16:55.232Z,24.26
2022-10-07T15:19:22.968Z,24.01
2022-10-07T15:21:52.666Z,23.87
2022-10-07T15:24:19.701Z,23.96
2022-10-07T15:26:49.139Z,24.09
2022-10-07T15:29:16.027Z,23.89
2022-10-07T15:31:47.956Z,23.92
2022-10-07T15:34:15.558Z,23.87
2022-10-07T15:36:43.252Z,23.80
2022-10-07T15:39:10.238Z,23.85
2022-10-07T15:41:38.375Z,23.67
2022-10-07T15:44:22.082Z,23.74
2022-10-07T15:46:50.483Z,23.51
2022-10-07T15:49:17.164Z,23.25
2022-10-07T15:51:44.375Z,23.31
2022-10-07T15:54:11.284Z,23.43
2022-10-07T15:56:38.229Z,23.34
2022-10-07T15:59:04.930Z,23.33
2022-10-07T16:01:32.786Z,23.23
2022-10-07T16:04:00.430Z,23.20
2022-10-07T16:06:28.157Z,23.06
2022-10-07T16:08:56.034Z,23.08
2022-10-07T16:11:23.272Z,23.16
2022-10-07T16:13:50.043Z,23.15
2022-10-07T16:16:20.778Z,23.09
2022-10-07T16:18:48.614Z,22.96
2022-10-07T16:21:22.854Z,22.82
2022-10-07T16:23:55.096Z,22.76
2022-10-07T16:26:24.682Z,22.79
2022-10-07T16:29:11.150Z,22.72
2022-10-07T16:31:40.263Z,22.55
2022-10-07T16:34:07.741Z,22.47
2022-10-07T16:36:36.043Z,22.23
2022-10-07T16:39:04.038Z,22.05
2022-10-07T16:41:31.511Z,21.90
2022-10-07T16:44:01.771Z,21.91
2022-10-07T16:46:29.033Z,21.88
2022-10-07T16:48:55.992Z,21.85
2022-10-07T16:51:27.380Z,21.73
2022-10-07T16:53:55.517Z,21.54
2022-10-07T16:56:22.780Z,21.32
2022-10-07T16:58:54.494Z,21.48
2022-10-07T17:01:21.363Z,21.17
2022-10-07T17:03:49.889Z,21.09
2022-10-07T17:06:18.515Z,21.02
2022-10-07T17:08:48.334Z,20.98
2022-10-07T17:11:28.682Z,20.99
2022-10-07T17:13:56.531Z,20.92
2022-10-07T17:16:24.376Z,20.66
2022-10-07T17:18:51.558Z,20.62
2022-10-07T17:21:19.117Z,20.58
2022-10-07T17:23:46.418Z,20.54
2022-10-07T17:26:13.193Z,20.58
2022-10-07T17:28:39.904Z,20.49
2022-10-07T17:31:11.050Z,20.31
2022-10-07T17:33:41.763Z,20.33
2022-10-07T17:36:09.679Z,20.25
2022-10-07T17:38:39.363Z,20.24
2022-10-07T17:41:12.243Z,20.27
2022-10-07T17:43:40.223Z,20.14
2022-10-07T17:46:12.446Z,20.04
2022-10-07T17:48:43.472Z,19.90
2022-10-07T17:51:10.147Z,19.98
2022-10-07T17:53:37.267Z,19.79
2022-10-07T17:56:04.846Z,19.82
2022-10-07T17:58:31.799Z,19.81
2022-10-07T18:00:59.340Z,19.73
2022-10-07T18:03:29.300Z,19.66
2022-10-07T18:05:56.111Z,19.62
2022-10-07T18:08:22.837Z,19.67
2022-10-07T18:10:50.796Z,19.42
2022-10-07T18:13:36.055Z,19.48
2022-10-07T18:16:04.104Z,19.60
2022-10-07T18:18:31.614Z,19.56
2022-10-07T18:21:02.177Z,19.45
2022-10-07T18:23:30.135Z,19.54
2022-10-07T18:26:02.633Z,19.33
2022-10-07T18:28:31.422Z,19.22
2022-10-07T18:30:58.168Z,19.10
2022-10-07T18:33:24.909Z,19.11
2022-10-07T18:36:02.435Z,19.22
2022-10-07T18:38:39.533Z,19.18
2022-10-07T18:41:07.895Z,19.19
2022-10-07T18:43:34.678Z,19.00
2022-10-07T18:46:02.501Z,18.92
2022-10-07T18:48:30.914Z,18.77
2022-10-07T18:51:00.042Z,18.76
2022-10-07T18:53:27.508Z,18.84
2022-10-07T18:55:55.195Z,18.75
2022-10-07T18:58:23.989Z,18.66
2022-10-07T19:00:52.348Z,18.72
2022-10-07T19:03:20.131Z,18.59
2022-10-07T19:06:03.758Z,18.56
2022-10-07T19:08:30.943Z,18.22
2022-10-07T19:10:58.065Z,18.36
2022-10-07T19:13:43.704Z,18.39
2022-10-07T19:16:11.477Z,18.44
2022-10-07T19:18:38.415Z,18.36
2022-10-07T19:21:05.137Z,18.29
2022-10-07T19:23:32.093Z,18.16
2022-10-07T19:25:59.962Z,18.34
2022-10-07T19:28:26.835Z,18.38
2022-10-07T19:30:55.272Z,18.23
2022-10-07T19:33:22.188Z,18.15
2022-10-07T19:35:56.405Z,18.06
2022-10-07T19:38:24.892Z,18.19
2022-10-07T19:41:00.393Z,18.11
2022-10-07T19:43:29.210Z,18.19
2022-10-07T19:46:02.719Z,17.94
2022-10-07T19:48:32.936Z,17.92
2022-10-07T19:51:03.967Z,17.92
2022-10-07T19:53:44.476Z,17.78
2022-10-07T19:56:18.292Z,17.83
2022-10-07T19:58:49.120Z,17.95
2022-10-07T20:01:17.046Z,17.84
2022-10-07T20:03:44.554Z,17.67
2022-10-07T20:06:13.320Z,17.78
2022-10-07T20:08:41.703Z,17.74
2022-10-07T20:11:09.669Z,17.62
2022-10-07T20:13:38.047Z,17.62
2022-10-07T20:16:09.129Z,17.71
2022-10-07T20:18:36.494Z,17.59
2022-10-07T20:21:10.718Z,17.57
2022-10-07T20:23:39.919Z,17.46
2022-10-07T20:26:06.739Z,17.46
2022-10-07T20:28:35.328Z,17.57
2022-10-07T20:31:04.750Z,17.52
2022-10-07T20:33:36.503Z,17.41
2022-10-07T20:36:04.136Z,17.16
2022-10-07T20:38:50.823Z,17.43
2022-10-07T20:41:36.734Z,17.24
2022-10-07T20:44:03.695Z,17.13
2022-10-07T20:46:30.832Z,17.22
2022-10-07T20:48:57.608Z,17.24
2022-10-07T20:51:24.446Z,16.96
2022-10-07T20:53:51.562Z,17.18
2022-10-07T20:56:25.017Z,16.93
2022-10-07T20:58:52.170Z,17.02
2022-10-07T21:01:18.934Z,16.88
2022-10-07T21:03:46.273Z,16.90
2022-10-07T21:06:13.698Z,16.87
2022-10-07T21:08:41.107Z,16.90
2022-10-07T21:11:07.954Z,17.03
2022-10-07T21:13:34.981Z,16.91
2022-10-07T21:16:04.107Z,16.99
2022-10-07T21:18:31.126Z,16.91
2022-10-07T21:20:58.144Z,16.82
2022-10-07T21:23:25.289Z,16.72
2022-10-07T21:25:52.014Z,16.57
2022-10-07T21:28:19.084Z,16.73
2022-10-07T21:30:54.399Z,16.76
2022-10-07T21:33:21.548Z,16.65
2022-10-07T21:35:48.474Z,16.85
2022-10-07T21:38:15.201Z,16.54
2022-10-07T21:40:42.222Z,16.55
2022-10-07T21:43:08.949Z,16.57
2022-10-07T21:45:35.853Z,16.46
2022-10-07T21:48:03.201Z,16.34
2022-10-07T21:50:33.205Z,16.33
2022-10-07T21:53:00.330Z,16.44
2022-10-07T21:55:36.557Z,16.46
2022-10-07T21:58:04.658Z,16.31
2022-10-07T22:00:32.130Z,16.44
2022-10-07T22:02:59.358Z,16.25
2022-10-07T22:05:27.500Z,16.38
2022-10-07T22:08:13.598Z,16.33
2022-10-07T22:10:40.725Z,16.33
2022-10-07T22:13:07.456Z,16.39
2022-10-07T22:15:39.966Z,16.24
2022-10-07T22:18:07.226Z,16.19
2022-10-07T22:20:38.300Z,16.27
2022-10-07T22:23:04.991Z,16.23
2022-10-07T22:25:31.916Z,16.42
2022-10-07T22:27:58.718Z,16.10
2022-10-07T22:30:25.634Z,15.97
2022-10-07T22:32:52.654Z,16.11
2022-10-07T22:35:30.231Z,16.10
2022-10-07T22:37:58.764Z,16.18
2022-10-07T22:40:26.208Z,16.04
2022-10-07T22:42:52.982Z,16.10
2022-10-07T22:45:20.049Z,16.02
2022-10-07T22:47:48.051Z,15.81
2022-10-07T22:50:16.060Z,15.95
2022-10-07T22:52:43.179Z,15.85
2022-10-07T22:55:11.091Z,15.99
2022-10-07T22:57:37.796Z,15.82
2022-10-07T23:00:05.786Z,15.79
2022-10-07T23:02:32.743Z,15.86
2022-10-07T23:05:01.542Z,15.77
2022-10-07T23:07:28.872Z,15.59
2022-10-07T23:09:55.632Z,15.63
2022-10-07T23:12:22.390Z,15.79
2022-10-07T23:14:49.344Z,15.76
2022-10-07T23:17:25.204Z,15.66
2022-10-07T23:19:52.172Z,15.72
2022-10-07T23:22:20.249Z,15.78
2022-10-07T23:24:46.952Z,15.59
2022-10-07T23:27:14.977Z,15.39
2022-10-07T23:29:41.679Z,15.35
2022-10-07T23:32:08.531Z,15.32
2022-10-07T23:34:35.632Z,15.55
2022-10-07T23:37:02.311Z,15.17
2022-10-07T23:39:29.140Z,15.43
2022-10-07T23:41:56.188Z,15.51
2022-10-07T23:44:24.296Z,15.62
2022-10-07T23:46:51.762Z,15.62
2022-10-07T23:49:18.821Z,15.51
2022-10-07T23:51:45.529Z,15.22
2022-10-07T23:54:12.340Z,15.17
2022-10-07T23:56:39.292Z,15.18
2022-10-07T23:59:05.989Z,15.22
